Time;durP1;ratioP1;P1;durP2;ratioP2;P2;SDS_P1;SDS_P2;PMS_P1;PMS_P2;Temp;Humidity;BMP_temperature;BMP_pressure;BME280_temperature;BME280_humidity;BME280_pressure;Samples;Min_cycle;Max_cycle;Signal;HPM_P1;HPM_P2
2022/06/12 00:01:15;;;;;;;13.38;1.80;;;;;;;26.21;35.38;102328.81;5089006;28;20377;-71
2022/06/12 00:03:42;;;;;;;7.80;1.80;;;;;;;25.87;35.83;102331.44;5086765;28;20484;-71
2022/06/12 00:06:08;;;;;;;10.50;1.33;;;;;;;26.43;34.92;102328.53;5088691;28;20038;-71
2022/06/12 00:08:38;;;;;;;7.03;1.75;;;;;;;25.82;36.10;102322.75;5088755;28;20021;-71
2022/06/12 00:11:06;;;;;;;7.38;1.65;;;;;;;25.88;36.00;102327.81;5087194;28;20042;-71
2022/06/12 00:13:42;;;;;;;6.68;1.55;;;;;;;26.30;35.31;102314.09;5088372;28;20498;-72
2022/06/12 00:16:10;;;;;;;12.10;1.67;;;;;;;25.67;36.22;102327.06;5099687;28;20103;-71
2022/06/12 00:18:36;;;;;;;8.95;2.13;;;;;;;25.76;36.39;102325.75;5090529;28;20470;-70
2022/06/12 00:21:10;;;;;;;7.90;1.58;;;;;;;25.94;36.16;102315.03;5089033;28;20028;-71
2022/06/12 00:23:58;;;;;;;10.40;1.75;;;;;;;25.96;36.12;102313.16;5094615;28;20029;-71
2022/06/12 00:26:25;;;;;;;7.55;1.52;;;;;;;25.88;36.36;102309.06;5090161;28;20499;-72
2022/06/12 00:29:04;;;;;;;8.50;1.92;;;;;;;25.57;36.63;102318.66;5092221;28;20372;-71
2022/06/12 00:31:31;;;;;;;6.95;1.60;;;;;;;24.69;37.94;102316.63;5089500;28;20067;-72
2022/06/12 00:33:57;;;;;;;12.68;1.88;;;;;;;25.16;37.89;102324.19;5093878;28;20476;-71
2022/06/12 00:36:22;;;;;;;6.68;1.60;;;;;;;25.04;37.78;102314.09;5093402;28;20106;-71
2022/06/12 00:38:48;;;;;;;7.40;1.75;;;;;;;25.33;37.78;102319.88;5097137;27;20045;-71
2022/06/12 00:41:14;;;;;;;8.32;1.70;;;;;;;25.25;38.55;102320.19;5093961;28;20028;-71
2022/06/12 00:43:40;;;;;;;6.18;1.45;;;;;;;25.38;38.27;102312.47;5096449;28;20427;-71
2022/06/12 00:46:06;;;;;;;8.88;2.03;;;;;;;25.62;37.51;102315.72;5093430;28;20124;-71
2022/06/12 00:48:35;;;;;;;6.18;1.42;;;;;;;25.28;38.44;102316.50;5095501;28;20523;-71
2022/06/12 00:51:07;;;;;;;10.57;2.30;;;;;;;25.63;37.69;102308.56;5091895;28;20024;-71
2022/06/12 00:53:42;;;;;;;5.53;1.50;;;;;;;25.51;37.69;102318.97;5092200;28;20494;-71
2022/06/12 00:56:14;;;;;;;7.35;1.48;;;;;;;24.88;39.25;102314.81;5096162;28;20020;-71
2022/06/12 00:58:44;;;;;;;9.75;1.65;;;;;;;25.47;37.87;102306.69;5104014;28;20052;-71
2022/06/12 01:01:17;;;;;;;9.05;1.85;;;;;;;25.41;38.61;102312.31;5086550;28;20472;-71
2022/06/12 01:06:36;;;;;;;12.25;1.80;;;;;;;25.25;39.05;102312.16;5093830;28;20589;-72
2022/06/12 01:09:11;;;;;;;8.23;1.38;;;;;;;25.40;38.71;102310.59;5092318;28;20031;-72
2022/06/12 01:11:40;;;;;;;8.50;1.38;;;;;;;25.54;37.79;102317.91;5091032;28;20027;-71
2022/06/12 01:14:09;;;;;;;7.93;1.75;;;;;;;25.30;38.33;102310.16;5091156;28;20138;-71
2022/06/12 01:16:40;;;;;;;8.82;1.85;;;;;;;24.83;39.63;102319.50;5092287;28;20036;-71
2022/06/12 01:19:11;;;;;;;9.98;2.22;;;;;;;24.56;40.32;102305.59;5093020;28;20024;-71
2022/06/12 01:22:04;;;;;;;7.90;1.95;;;;;;;24.66;40.13;102308.72;5090954;28;20066;-71
2022/06/12 01:24:48;;;;;;;13.73;2.08;;;;;;;24.88;39.38;102309.47;5099887;27;20039;-71
2022/06/12 01:27:16;;;;;;;9.50;2.53;;;;;;;24.84;40.01;102312.34;5081894;28;20031;-71
2022/06/12 01:29:58;;;;;;;10.15;2.08;;;;;;;24.82;39.96;102301.72;5093625;28;20020;-71
2022/06/12 01:32:40;;;;;;;8.15;1.50;;;;;;;25.05;39.51;102299.78;5102340;27;20031;-71
2022/06/12 01:35:15;;;;;;;11.87;1.73;;;;;;;25.07;39.76;102303.22;5119386;27;20053;-72
2022/06/12 01:38:31;;;;;;;8.55;1.80;;;;;;;24.77;40.35;102305.56;5092242;28;20051;-71
2022/06/12 01:41:02;;;;;;;13.75;1.90;;;;;;;25.04;40.04;102303.38;5060889;28;20048;-71
2022/06/12 01:43:44;;;;;;;16.20;2.38;;;;;;;24.68;40.72;102304.19;5091474;28;20371;-71
2022/06/12 01:46:19;;;;;;;9.32;2.20;;;;;;;24.70;40.76;102295.19;5092753;28;20040;-71
2022/06/12 01:49:01;;;;;;;7.78;1.75;;;;;;;24.87;40.58;102307.75;5091694;28;20032;-71
2022/06/12 01:52:03;;;;;;;13.63;2.42;;;;;;;24.65;41.10;102301.69;5092211;28;20430;-71
2022/06/12 01:54:37;;;;;;;10.05;1.75;;;;;;;24.69;40.87;102311.28;5093263;28;20033;-71
2022/06/12 01:57:16;;;;;;;8.75;2.03;;;;;;;24.77;40.60;102309.13;5091094;28;20392;-71
2022/06/12 01:59:58;;;;;;;11.52;3.33;;;;;;;24.79;40.81;102309.06;5090466;28;20035;-71
2022/06/12 02:02:32;;;;;;;8.05;1.75;;;;;;;24.29;41.94;102316.63;5093187;28;20028;-71
2022/06/12 02:05:29;;;;;;;18.50;3.15;;;;;;;24.47;41.69;102314.03;5091306;28;20085;-71
2022/06/12 02:08:02;;;;;;;11.57;2.30;;;;;;;24.50;41.29;102309.41;5072369;28;20061;-72
2022/06/12 02:10:42;;;;;;;12.50;2.85;;;;;;;24.62;41.23;102307.16;5102313;27;20115;-71
2022/06/12 02:13:15;;;;;;;12.68;2.42;;;;;;;24.87;40.72;102313.09;5072257;28;20025;-71
2022/06/12 02:15:43;;;;;;;9.32;3.05;;;;;;;24.74;41.06;102306.56;5088445;28;20051;-72
2022/06/12 02:18:17;;;;;;;8.75;2.00;;;;;;;24.63;41.25;102303.53;5106970;28;20032;-71
2022/06/12 02:20:52;;;;;;;11.75;2.28;;;;;;;24.30;42.16;102290.75;5086403;28;20036;-71
2022/06/12 02:23:26;;;;;;;9.68;1.90;;;;;;;24.93;41.03;102295.88;5107806;28;20114;-71
2022/06/12 02:25:55;;;;;;;12.18;2.63;;;;;;;24.56;41.54;102287.78;5093900;28;20545;-71
2022/06/12 02:28:25;;;;;;;8.45;2.28;;;;;;;24.64;41.33;102299.94;5091582;28;20032;-71
2022/06/12 02:30:57;;;;;;;12.40;2.25;;;;;;;24.83;40.91;102294.59;5090279;28;20438;-71
2022/06/12 02:33:28;;;;;;;8.65;2.13;;;;;;;24.61;41.66;102294.72;5092616;28;20047;-71
2022/06/12 02:36:06;;;;;;;8.48;2.05;;;;;;;24.65;41.70;102299.00;5086432;28;20107;-71
2022/06/12 02:38:43;;;;;;;8.85;2.40;;;;;;;24.69;41.02;102300.59;5087875;28;20041;-71
2022/06/12 02:41:30;;;;;;;7.80;2.22;;;;;;;24.59;41.43;102293.91;5091600;28;20123;-71
2022/06/12 02:44:00;;;;;;;14.38;3.20;;;;;;;24.42;41.75;102298.22;5120316;27;20141;-71
2022/06/12 02:46:52;;;;;;;9.82;2.97;;;;;;;24.32;42.10;102304.94;5089277;28;20118;-71
2022/06/12 02:49:18;;;;;;;6.45;2.17;;;;;;;24.40;42.21;102302.78;5089773;28;20107;-71
2022/06/12 02:51:43;;;;;;;13.38;2.63;;;;;;;24.73;40.91;102304.88;5092691;28;20475;-71
2022/06/12 02:54:31;;;;;;;12.50;2.60;;;;;;;24.49;41.58;102296.13;5090444;28;20043;-71
2022/06/12 02:57:27;;;;;;;8.13;2.88;;;;;;;24.37;42.28;102292.19;5092420;28;20035;-71
2022/06/12 03:00:03;;;;;;;11.00;3.78;;;;;;;24.68;41.03;102293.50;5103873;28;20089;-71
2022/06/12 03:02:37;;;;;;;11.95;2.58;;;;;;;24.70;41.14;102291.63;5106162;27;20157;-71
2022/06/12 03:05:22;;;;;;;13.05;2.50;;;;;;;24.47;41.71;102292.66;5077360;28;20031;-71
2022/06/12 03:07:51;;;;;;;11.85;2.53;;;;;;;24.43;42.01;102297.28;5088930;28;20032;-70
2022/06/12 03:10:21;;;;;;;11.07;2.60;;;;;;;24.47;41.84;102285.53;5089675;28;20427;-70
2022/06/12 03:12:50;;;;;;;12.18;3.15;;;;;;;24.38;42.14;102292.13;5090004;28;20035;-70
2022/06/12 03:15:32;;;;;;;14.40;2.88;;;;;;;24.42;41.97;102284.84;5090834;28;20027;-71
2022/06/12 03:17:59;;;;;;;8.75;2.45;;;;;;;24.30;42.12;102286.25;5090684;28;20028;-71
2022/06/12 03:20:32;;;;;;;15.05;2.83;;;;;;;24.50;41.68;102287.19;5087144;28;20036;-70
2022/06/12 03:23:11;;;;;;;13.07;3.30;;;;;;;24.14;43.03;102288.78;5090755;28;20383;-72
2022/06/12 03:25:52;;;;;;;12.98;2.45;;;;;;;23.96;43.35;102281.56;5079804;28;20024;-72
2022/06/12 03:28:32;;;;;;;12.90;2.95;;;;;;;24.15;42.93;102293.19;5089065;28;20020;-72
2022/06/12 03:31:07;;;;;;;13.88;3.05;;;;;;;24.01;43.35;102300.94;5088563;28;20028;-71
2022/06/12 03:33:44;;;;;;;10.55;2.30;;;;;;;24.20;42.68;102293.84;5093812;28;20118;-70
2022/06/12 03:36:18;;;;;;;16.73;2.80;;;;;;;24.30;42.52;102290.75;5088403;28;20028;-71
2022/06/12 03:39:16;;;;;;;9.45;2.47;;;;;;;24.39;42.35;102301.03;5092037;28;20488;-70
2022/06/12 03:42:04;;;;;;;13.38;2.78;;;;;;;24.14;42.76;102299.47;5087952;28;20088;-71
2022/06/12 03:44:35;;;;;;;11.20;2.42;;;;;;;23.98;43.50;102301.06;5102023;28;20047;-71
2022/06/12 03:47:07;;;;;;;11.18;2.85;;;;;;;23.81;43.89;102310.66;5095681;28;20039;-70
2022/06/12 03:49:54;;;;;;;18.25;3.53;;;;;;;23.77;43.94;102311.72;5105278;28;20036;-71
2022/06/12 03:52:34;;;;;;;7.80;2.78;;;;;;;23.86;43.67;102302.44;5085577;28;20067;-71
2022/06/12 03:55:08;;;;;;;9.75;2.80;;;;;;;23.85;43.21;102301.56;5088182;28;20265;-71
2022/06/12 03:57:51;;;;;;;13.20;4.32;;;;;;;23.97;43.38;102294.00;5089498;28;20636;-71
2022/06/12 04:00:39;;;;;;;12.27;3.63;;;;;;;23.83;43.97;102290.06;5075210;28;20388;-71
2022/06/12 04:03:11;;;;;;;10.32;2.75;;;;;;;23.94;43.77;102303.00;5088709;28;20092;-71
2022/06/12 04:05:39;;;;;;;11.68;2.50;;;;;;;24.13;43.25;102302.19;5089899;28;20791;-72
2022/06/12 04:08:09;;;;;;;17.98;3.90;;;;;;;24.21;43.32;102302.72;5093467;28;20035;-73
2022/06/12 04:10:37;;;;;;;9.23;2.92;;;;;;;23.80;44.45;102308.91;5093339;28;20024;-73
2022/06/12 04:13:06;;;;;;;11.65;3.28;;;;;;;24.18;44.01;102298.38;5093113;28;20035;-70
2022/06/12 04:15:39;;;;;;;14.95;3.58;;;;;;;24.16;43.53;102310.94;5094565;28;20028;-70
2022/06/12 04:18:05;;;;;;;8.45;2.42;;;;;;;24.14;43.68;102318.16;5093362;28;20043;-70
2022/06/12 04:20:37;;;;;;;11.35;3.03;;;;;;;24.14;43.65;102307.47;5092779;28;20111;-71
2022/06/12 04:23:25;;;;;;;9.55;2.90;;;;;;;24.36;42.93;102306.53;5105501;28;20118;-71
2022/06/12 04:25:57;;;;;;;9.20;2.67;;;;;;;24.31;43.13;102303.19;5095171;28;20488;-71
2022/06/12 04:28:38;;;;;;;13.38;3.35;;;;;;;24.05;43.85;102313.22;5093192;28;20087;-71
2022/06/12 04:31:09;;;;;;;8.57;3.17;;;;;;;24.28;43.56;102308.66;5098240;28;20043;-70
2022/06/12 04:33:45;;;;;;;12.63;3.55;;;;;;;24.44;43.79;102307.03;5098851;28;20118;-70
2022/06/12 04:36:12;;;;;;;13.20;2.75;;;;;;;24.52;43.46;102318.25;5095939;28;20024;-71
2022/06/12 04:38:39;;;;;;;11.55;3.15;;;;;;;24.06;44.46;102309.63;5093612;28;20400;-70
2022/06/12 04:41:05;;;;;;;12.38;2.90;;;;;;;23.54;46.43;102313.53;5093640;28;20039;-71
2022/06/12 04:43:31;;;;;;;13.35;2.92;;;;;;;24.53;44.42;102314.63;5092623;28;20035;-71
2022/06/12 04:45:56;;;;;;;10.18;3.15;;;;;;;25.49;43.41;102322.66;5095707;28;20043;-71
2022/06/12 04:48:34;;;;;;;15.75;3.15;;;;;;;25.90;40.90;102312.50;5093423;28;20024;-70
2022/06/12 04:51:00;;;;;;;11.05;2.53;;;;;;;27.33;38.98;102312.88;5092369;28;20062;-71
2022/06/12 04:53:26;;;;;;;12.15;1.88;;;;;;;27.53;36.52;102317.09;5089503;28;20032;-70
2022/06/12 04:55:51;;;;;;;7.47;2.38;;;;;;;27.63;36.71;102312.06;5088130;28;20107;-71
2022/06/12 04:58:17;;;;;;;13.27;2.78;;;;;;;28.79;35.36;102315.78;5093145;28;20101;-70
2022/06/12 05:00:42;;;;;;;10.63;1.98;;;;;;;29.73;33.49;102318.53;5095980;28;20034;-71
2022/06/12 05:03:08;;;;;;;11.38;2.40;;;;;;;29.60;32.61;102317.63;5091870;28;20050;-71
2022/06/12 05:05:34;;;;;;;12.82;2.65;;;;;;;30.65;31.35;102312.19;5091277;28;20032;-71
2022/06/12 05:07:59;;;;;;;9.05;1.98;;;;;;;30.01;32.14;102323.88;5092085;28;20081;-71
2022/06/12 05:10:25;;;;;;;12.02;2.25;;;;;;;30.10;31.35;102317.81;5092256;28;20056;-73
2022/06/12 05:12:50;;;;;;;10.88;1.65;;;;;;;29.72;32.26;102321.34;5090546;28;20056;-70
2022/06/12 05:15:16;;;;;;;7.18;1.70;;;;;;;27.82;34.25;102331.50;5091152;28;20083;-70
2022/06/12 05:17:46;;;;;;;5.43;1.88;;;;;;;27.45;35.36;102322.06;5091219;28;20023;-70
2022/06/12 05:20:22;;;;;;;11.18;1.77;;;;;;;27.42;35.17;102329.34;5091827;28;20020;-70
2022/06/12 05:22:48;;;;;;;8.45;2.67;;;;;;;26.94;36.43;102327.63;5091067;28;20058;-71
2022/06/12 05:25:15;;;;;;;8.20;1.83;;;;;;;26.97;37.08;102324.75;5090527;28;20430;-70
2022/06/12 05:27:42;;;;;;;8.88;1.98;;;;;;;26.27;37.35;102328.50;5091093;28;20020;-70
2022/06/12 05:30:12;;;;;;;11.52;1.77;;;;;;;26.27;38.17;102323.16;5093176;28;20177;-71
2022/06/12 05:32:37;;;;;;;10.73;1.88;;;;;;;23.04;43.97;102335.09;5092480;28;20019;-70
2022/06/12 05:35:03;;;;;;;10.68;2.17;;;;;;;25.75;39.29;102332.06;5088803;28;20035;-70
2022/06/12 05:37:29;;;;;;;9.68;2.13;;;;;;;25.65;39.21;102330.78;5091705;28;20039;-69
2022/06/12 05:39:54;;;;;;;15.82;2.25;;;;;;;25.26;39.08;102334.47;5094823;28;20036;-70
2022/06/12 05:42:20;;;;;;;12.48;2.03;;;;;;;25.24;39.47;102332.72;5090788;28;20028;-70
2022/06/12 05:44:46;;;;;;;11.82;2.03;;;;;;;23.50;43.43;102338.59;5090587;28;20427;-70
2022/06/12 05:47:11;;;;;;;9.20;1.75;;;;;;;24.84;40.26;102334.63;5091399;28;20024;-69
2022/06/12 05:49:37;;;;;;;6.18;2.00;;;;;;;25.10;39.73;102340.56;5095486;28;20016;-69
2022/06/12 05:52:03;;;;;;;9.68;2.22;;;;;;;25.72;38.64;102346.47;5096324;27;20023;-69
2022/06/12 05:54:28;;;;;;;6.13;1.65;;;;;;;25.97;37.74;102347.03;5088165;28;20504;-70
2022/06/12 05:56:54;;;;;;;8.88;1.95;;;;;;;25.86;38.38;102345.75;5088019;28;20028;-71
2022/06/12 05:59:19;;;;;;;14.20;3.05;;;;;;;25.23;38.91;102357.72;5092018;28;20501;-70
2022/06/12 06:01:44;;;;;;;8.63;2.05;;;;;;;25.83;37.85;102356.63;5091266;28;20088;-70
2022/06/12 06:04:10;;;;;;;9.00;2.63;;;;;;;25.74;37.77;102357.09;5091849;28;20034;-70
2022/06/12 06:06:57;;;;;;;13.68;2.42;;;;;;;25.13;38.68;102350.22;5087920;28;20713;-69
2022/06/12 06:09:23;;;;;;;7.00;1.70;;;;;;;25.85;38.34;102349.38;5097954;27;20019;-70
2022/06/12 06:11:48;;;;;;;5.82;1.90;;;;;;;24.77;38.77;102346.56;5095605;28;20031;-69
2022/06/12 06:14:15;;;;;;;5.70;2.00;;;;;;;25.26;38.40;102350.50;5114907;27;20396;-69
2022/06/12 06:16:42;;;;;;;9.38;1.83;;;;;;;27.40;34.75;102341.13;5096164;28;20020;-69
2022/06/12 06:19:09;;;;;;;9.05;1.95;;;;;;;26.47;35.34;102351.56;5094073;28;20028;-69
2022/06/12 06:21:35;;;;;;;6.10;1.35;;;;;;;28.42;32.11;102351.19;5092337;28;20241;-70
2022/06/12 06:24:01;;;;;;;10.85;1.75;;;;;;;29.62;30.70;102350.69;5089742;28;20106;-70
2022/06/12 06:26:27;;;;;;;11.93;2.08;;;;;;;28.86;31.49;102350.25;5090315;28;20544;-70
2022/06/12 06:28:56;;;;;;;10.57;1.67;;;;;;;30.54;29.49;102359.72;5109328;27;20016;-70
2022/06/12 06:31:22;;;;;;;3.63;1.38;;;;;;;30.57;28.71;102362.19;5090465;28;20168;-70
2022/06/12 06:33:48;;;;;;;5.43;1.63;;;;;;;31.42;27.05;102363.25;5091193;28;20028;-71
2022/06/12 06:36:18;;;;;;;5.43;1.90;;;;;;;31.44;27.25;102366.72;5090844;28;20031;-70
2022/06/12 06:38:45;;;;;;;6.93;1.42;;;;;;;32.58;25.17;102371.44;5089390;28;20043;-69
2022/06/12 06:41:11;;;;;;;4.75;1.13;;;;;;;31.85;26.19;102369.94;5083478;28;20024;-70
2022/06/12 06:46:52;;;;;;;6.80;1.90;;;;;;;33.64;24.39;102377.31;5072860;28;20444;-69
2022/06/12 06:49:19;;;;;;;8.52;1.65;;;;;;;34.90;23.44;102376.34;5051324;28;20028;-69
2022/06/12 06:51:45;;;;;;;4.40;1.33;;;;;;;35.16;22.83;102371.25;5084752;28;20086;-69
2022/06/12 06:54:10;;;;;;;7.18;1.38;;;;;;;34.04;23.71;102394.75;5087466;28;20048;-71
2022/06/12 06:56:35;;;;;;;9.38;1.98;;;;;;;33.62;24.36;102396.41;5099902;27;20028;-69
2022/06/12 06:59:01;;;;;;;8.15;1.75;;;;;;;32.89;24.77;102389.78;5107317;28;20391;-69
2022/06/12 07:01:26;;;;;;;5.22;1.38;;;;;;;33.46;24.23;102390.56;5106197;27;20383;-70
2022/06/12 07:03:53;;;;;;;5.90;1.63;;;;;;;32.07;26.42;102396.22;5088794;28;20390;-70
2022/06/12 07:06:19;;;;;;;7.55;1.63;;;;;;;34.38;23.41;102397.28;5088021;28;20016;-69
2022/06/12 07:08:44;;;;;;;5.35;1.60;;;;;;;35.08;22.62;102392.81;5098551;28;20027;-70
2022/06/12 07:11:10;;;;;;;9.05;2.20;;;;;;;34.03;24.03;102398.44;5091008;28;20097;-70
2022/06/12 07:13:35;;;;;;;4.82;1.73;;;;;;;35.13;23.07;102390.56;5089912;28;20068;-70
2022/06/12 07:16:01;;;;;;;8.30;1.60;;;;;;;33.86;25.05;102402.63;5091215;28;20055;-69
2022/06/12 07:18:26;;;;;;;9.30;1.95;;;;;;;34.94;24.33;102399.53;5086682;28;20020;-69
2022/06/12 07:20:55;;;;;;;6.05;1.65;;;;;;;36.24;21.89;102392.13;5086209;28;20027;-70
2022/06/12 07:23:23;;;;;;;9.75;1.50;;;;;;;34.63;22.61;102396.78;5091078;28;20487;-69
2022/06/12 07:25:56;;;;;;;6.00;1.48;;;;;;;34.76;22.92;102395.69;5091532;28;20023;-69
2022/06/12 07:28:24;;;;;;;6.00;1.60;;;;;;;35.43;22.58;102390.63;5090923;28;20027;-69
2022/06/12 07:30:50;;;;;;;8.95;1.73;;;;;;;34.98;23.04;102392.81;5090184;28;20101;-69
2022/06/12 07:33:16;;;;;;;5.88;1.40;;;;;;;36.99;22.06;102392.13;5089625;28;20031;-69
2022/06/12 07:35:44;;;;;;;6.65;1.70;;;;;;;35.75;20.77;102386.72;5090628;28;20028;-69
2022/06/12 07:38:12;;;;;;;4.80;1.35;;;;;;;35.67;21.91;102391.03;5068728;28;20610;-70
2022/06/12 07:40:42;;;;;;;5.57;1.40;;;;;;;35.45;22.24;102391.34;5041531;28;20081;-70
2022/06/12 07:43:08;;;;;;;6.95;2.05;;;;;;;36.25;21.08;102394.69;5075302;28;20027;-71
2022/06/12 07:45:35;;;;;;;6.30;1.65;;;;;;;37.80;20.61;102387.69;5114422;27;20455;-70
2022/06/12 07:48:01;;;;;;;4.57;1.30;;;;;;;34.95;21.10;102398.53;5085054;28;20047;-69
2022/06/12 07:50:26;;;;;;;5.25;2.30;;;;;;;33.55;22.99;102395.22;5089874;28;20100;-70
2022/06/12 07:52:52;;;;;;;7.40;1.80;;;;;;;32.95;23.79;102387.44;5088529;28;20043;-70
2022/06/12 07:55:19;;;;;;;6.43;2.40;;;;;;;34.74;22.94;102389.56;5089796;28;20051;-70
2022/06/12 07:57:45;;;;;;;5.38;1.52;;;;;;;35.17;22.86;102382.97;5087947;28;20036;-70
2022/06/12 08:00:13;;;;;;;7.53;1.60;;;;;;;35.06;21.26;102391.25;5105562;28;20038;-69
2022/06/12 08:02:40;;;;;;;6.15;1.50;;;;;;;36.08;20.84;102387.28;5089706;28;20115;-70
2022/06/12 08:05:05;;;;;;;5.03;1.67;;;;;;;36.99;20.23;102387.53;5085291;28;20062;-70
2022/06/12 08:07:31;;;;;;;7.20;1.55;;;;;;;35.28;20.92;102382.88;5090635;28;20051;-70
2022/06/12 08:09:56;;;;;;;5.28;1.63;;;;;;;37.18;18.94;102386.53;5089210;28;20022;-70
2022/06/12 08:12:22;;;;;;;3.83;1.30;;;;;;;35.60;19.86;102395.34;5088025;28;20027;-70
2022/06/12 08:14:47;;;;;;;4.72;1.30;;;;;;;34.22;22.49;102397.72;5097508;28;20028;-70
2022/06/12 08:17:13;;;;;;;8.05;1.70;;;;;;;36.64;20.58;102393.72;5088802;28;20020;-69
2022/06/12 08:22:22;;;;;;;7.75;1.70;;;;;;;35.29;20.55;102395.44;5092089;28;20050;-70
2022/06/12 08:24:47;;;;;;;4.72;2.03;;;;;;;33.78;22.06;102400.56;5089725;28;20387;-70
2022/06/12 08:27:13;;;;;;;7.60;1.80;;;;;;;34.96;20.75;102385.78;5099318;28;20020;-71
2022/06/12 08:29:39;;;;;;;7.72;1.95;;;;;;;34.75;22.50;102394.84;5087759;28;20028;-71
2022/06/12 08:32:11;;;;;;;7.00;1.50;;;;;;;36.63;19.95;102398.31;5089945;28;20032;-71
2022/06/12 08:34:46;;;;;;;6.28;1.60;;;;;;;34.36;22.04;102399.25;5089716;28;20028;-69
2022/06/12 08:37:21;;;;;;;2.88;1.55;;;;;;;33.93;22.19;102404.66;5083697;28;20044;-70
2022/06/12 08:39:47;;;;;;;5.72;1.25;;;;;;;36.18;21.27;102390.84;5088046;28;20036;-71
2022/06/12 08:42:27;;;;;;;3.78;1.00;;;;;;;34.79;21.01;102398.16;5090126;28;20043;-71
2022/06/12 08:45:17;;;;;;;6.30;1.20;;;;;;;34.13;21.13;102404.81;5089461;28;20100;-71
2022/06/12 08:47:50;;;;;;;8.57;1.60;;;;;;;32.34;23.08;102395.03;5089252;28;20044;-71
2022/06/12 08:50:23;;;;;;;5.60;1.25;;;;;;;35.37;21.21;102388.47;5087654;28;20028;-71
2022/06/12 08:53:02;;;;;;;4.28;0.98;;;;;;;36.09;20.72;102389.00;5097527;28;20038;-70
2022/06/12 08:55:58;;;;;;;3.30;1.00;;;;;;;34.17;20.79;102392.69;5098618;28;20103;-69
2022/06/12 08:58:37;;;;;;;3.22;0.95;;;;;;;33.92;21.27;102397.53;5091422;28;20062;-71
2022/06/12 09:01:03;;;;;;;5.05;1.23;;;;;;;34.15;21.83;102386.53;5090420;28;20063;-70
2022/06/12 09:03:35;;;;;;;5.70;1.40;;;;;;;35.83;21.36;102373.31;5088089;28;20807;-69
2022/06/12 09:06:09;;;;;;;8.00;1.25;;;;;;;35.44;20.64;102368.72;5092722;28;20123;-71
2022/06/12 09:08:48;;;;;;;5.25;1.40;;;;;;;32.49;22.36;102374.88;5093472;28;20020;-69
2022/06/12 09:11:19;;;;;;;7.00;1.55;;;;;;;34.76;20.66;102369.44;5091828;28;20032;-70
2022/06/12 09:14:26;;;;;;;4.38;1.20;;;;;;;34.21;21.41;102369.72;5092276;28;20035;-70
2022/06/12 09:17:07;;;;;;;5.13;1.85;;;;;;;32.96;22.17;102362.09;5092316;28;20066;-70
2022/06/12 09:19:41;;;;;;;3.97;1.38;;;;;;;34.66;21.22;102361.25;5091372;28;20016;-70
2022/06/12 09:22:36;;;;;;;5.43;1.33;;;;;;;32.68;21.78;102371.56;5078829;28;20478;-70
2022/06/12 09:25:10;;;;;;;4.85;1.20;;;;;;;33.92;21.18;102366.81;5084852;28;20035;-70
2022/06/12 09:27:46;;;;;;;6.78;1.30;;;;;;;33.42;21.84;102362.00;5082131;28;20031;-70
2022/06/12 09:30:20;;;;;;;4.97;1.42;;;;;;;35.13;20.51;102359.78;5096043;28;20027;-70
2022/06/12 09:33:07;;;;;;;3.33;1.15;;;;;;;36.48;20.67;102361.72;5092679;27;20016;-69
2022/06/12 09:35:52;;;;;;;7.63;1.55;;;;;;;35.87;19.79;102365.72;5088130;28;20491;-70
2022/06/12 09:38:37;;;;;;;3.35;1.00;;;;;;;34.47;21.37;102364.75;5071651;28;20074;-70
2022/06/12 09:41:25;;;;;;;5.68;1.30;;;;;;;34.04;20.82;102363.06;5087462;28;20034;-70
2022/06/12 09:44:12;;;;;;;5.18;1.30;;;;;;;35.22;19.64;102372.53;5087356;28;20506;-70
2022/06/12 09:47:09;;;;;;;3.33;1.30;;;;;;;33.04;20.96;102384.97;5093175;28;20399;-70
2022/06/12 09:49:40;;;;;;;7.55;1.25;;;;;;;32.55;22.63;102378.94;5093816;28;20032;-70
2022/06/12 09:52:14;;;;;;;5.78;1.52;;;;;;;30.21;24.55;102385.38;5100514;28;20500;-69
2022/06/12 09:54:49;;;;;;;6.95;0.95;;;;;;;32.56;23.74;102378.84;5086975;28;20081;-70
2022/06/12 09:57:24;;;;;;;10.52;1.10;;;;;;;33.44;22.16;102382.56;5090200;28;20123;-70
2022/06/12 10:00:03;;;;;;;4.25;1.10;;;;;;;32.41;21.37;102372.81;5086196;28;20059;-70
2022/06/12 10:03:03;;;;;;;4.22;1.15;;;;;;;33.74;20.00;102385.50;5085866;28;20028;-70
2022/06/12 10:05:35;;;;;;;3.78;1.00;;;;;;;31.97;22.23;102391.50;5081401;28;20047;-69
2022/06/12 10:08:29;;;;;;;4.13;0.87;;;;;;;32.32;21.11;102388.91;5086713;28;20038;-70
2022/06/12 10:11:00;;;;;;;3.55;1.00;;;;;;;32.11;23.18;102387.72;5080291;28;20037;-70
2022/06/12 10:13:37;;;;;;;5.32;1.52;;;;;;;32.70;21.35;102391.28;5091412;28;20170;-70
2022/06/12 10:16:10;;;;;;;1.73;1.13;;;;;;;31.06;22.67;102389.31;5088452;28;20028;-70
2022/06/12 10:18:41;;;;;;;5.25;1.38;;;;;;;35.05;20.15;102378.66;5091302;28;20055;-70
2022/06/12 10:21:10;;;;;;;5.95;1.05;;;;;;;30.26;22.50;102396.66;5091801;28;20027;-70
2022/06/12 10:23:36;;;;;;;2.22;0.85;;;;;;;30.53;23.61;102398.44;5089906;28;20019;-70
2022/06/12 10:26:13;;;;;;;3.58;1.10;;;;;;;31.79;22.84;102399.19;5090556;28;20028;-69
2022/06/12 10:28:38;;;;;;;4.97;1.13;;;;;;;31.02;23.14;102382.38;5091572;28;20016;-70
2022/06/12 10:31:10;;;;;;;5.00;1.30;;;;;;;33.97;20.47;102384.41;5092503;28;20036;-70
2022/06/12 10:33:41;;;;;;;3.88;1.38;;;;;;;32.85;21.22;102386.50;5082316;28;20100;-70
2022/06/12 10:36:28;;;;;;;6.50;1.25;;;;;;;33.89;20.56;102384.22;5090084;28;20039;-71
2022/06/12 10:39:13;;;;;;;2.65;1.15;;;;;;;34.17;20.27;102395.41;5119625;27;20396;-70
2022/06/12 10:42:01;;;;;;;4.70;1.02;;;;;;;32.32;21.76;102387.06;5092146;28;20067;-69
2022/06/12 10:44:26;;;;;;;3.42;1.17;;;;;;;31.41;22.97;102377.75;5089327;28;20046;-70
2022/06/12 10:46:52;;;;;;;5.22;2.45;;;;;;;32.65;21.01;102375.38;5089411;28;20023;-70
2022/06/12 10:49:22;;;;;;;5.38;1.00;;;;;;;31.98;22.29;102381.53;5083423;28;20076;-70
2022/06/12 10:51:48;;;;;;;5.13;1.13;;;;;;;33.33;20.92;102379.88;5083058;28;20024;-71
2022/06/12 10:54:28;;;;;;;2.30;0.80;;;;;;;33.29;20.37;102373.88;5097440;28;20031;-71
2022/06/12 10:57:07;;;;;;;4.60;1.10;;;;;;;33.29;20.28;102373.88;5094971;27;20051;-71
2022/06/12 10:59:48;;;;;;;2.90;1.20;;;;;;;30.81;23.31;102374.03;5102888;28;20035;-71
2022/06/12 11:02:37;;;;;;;5.07;0.93;;;;;;;34.18;19.97;102364.56;5089016;27;20598;-69
2022/06/12 11:05:18;;;;;;;3.95;0.98;;;;;;;32.93;20.32;102373.19;5084460;28;20477;-72
2022/06/12 11:08:16;;;;;;;1.45;0.68;;;;;;;31.96;20.90;102373.56;5087708;28;20040;-72
2022/06/12 11:10:50;;;;;;;1.88;0.93;;;;;;;30.88;21.82;102369.91;5075769;28;20035;-71
2022/06/12 11:13:35;;;;;;;1.75;0.75;;;;;;;29.68;23.73;102379.09;5078957;28;20036;-71
2022/06/12 11:16:16;;;;;;;3.50;1.20;;;;;;;31.19;22.29;102368.53;5090662;28;20023;-71
2022/06/12 11:19:06;;;;;;;7.22;1.45;;;;;;;31.11;21.51;102371.78;5100611;28;20032;-71
2022/06/12 11:21:54;;;;;;;3.00;0.80;;;;;;;32.70;20.87;102371.47;5090927;28;20024;-71
2022/06/12 11:24:22;;;;;;;3.38;1.30;;;;;;;32.09;20.84;102372.59;5081677;28;20039;-70
2022/06/12 11:27:08;;;;;;;4.40;1.05;;;;;;;31.75;22.08;102375.19;5076407;28;20051;-72
2022/06/12 11:29:36;;;;;;;2.00;0.80;;;;;;;32.14;22.16;102367.69;5076177;28;20089;-71
2022/06/12 11:32:17;;;;;;;3.50;1.13;;;;;;;31.75;23.05;102370.69;5087534;28;20039;-72
2022/06/12 11:35:11;;;;;;;4.22;1.10;;;;;;;32.11;21.89;102370.66;5103175;28;20081;-71
2022/06/12 11:38:15;;;;;;;5.53;1.38;;;;;;;29.76;23.78;102390.22;5097949;28;20522;-71
2022/06/12 11:41:05;;;;;;;5.13;1.05;;;;;;;30.43;22.90;102382.00;5080611;28;20036;-72
2022/06/12 11:43:39;;;;;;;3.47;1.15;;;;;;;30.18;23.08;102382.84;5100979;28;20447;-71
2022/06/12 11:46:41;;;;;;;5.03;0.98;;;;;;;30.25;23.31;102384.19;5080499;28;20426;-71
2022/06/12 11:49:31;;;;;;;2.70;1.00;;;;;;;29.98;23.82;102375.28;5088306;28;20156;-72
2022/06/12 11:52:07;;;;;;;2.97;1.30;;;;;;;31.49;21.92;102374.44;5081423;28;20458;-71
2022/06/12 11:54:39;;;;;;;2.42;0.90;;;;;;;29.83;23.46;102377.16;5100848;28;20024;-71
2022/06/12 11:57:28;;;;;;;4.38;0.93;;;;;;;30.95;23.02;102366.66;5090961;28;20033;-72
2022/06/12 12:00:06;;;;;;;2.80;1.10;;;;;;;31.29;21.95;102366.88;5087338;28;20463;-71